sensor_id;sensor_type;location;lat;lon;timestamp;pressure;altitude;pressure_sealevel;temperature;humidity
66396;BME280;72184;51.378;-1.342;2023-09-19T00:00:01;99513.78;;;17.75;43.51
66396;BME280;72184;51.378;-1.342;2023-09-19T00:02:28;99507.21;;;17.75;43.33
66396;BME280;72184;51.378;-1.342;2023-09-19T00:04:55;99502.08;;;17.73;43.27
66396;BME280;72184;51.378;-1.342;2023-09-19T00:07:23;99506.37;;;17.75;43.26
66396;BME280;72184;51.378;-1.342;2023-09-19T00:09:50;99501.58;;;17.76;43.12
66396;BME280;72184;51.378;-1.342;2023-09-19T00:12:17;99505.78;;;18.24;43.17
66396;BME280;72184;51.378;-1.342;2023-09-19T00:14:44;99500.39;;;17.98;43.17
66396;BME280;72184;51.378;-1.342;2023-09-19T00:17:12;99511.45;;;17.95;43.16
66396;BME280;72184;51.378;-1.342;2023-09-19T00:19:39;99513.49;;;17.99;43.20
66396;BME280;72184;51.378;-1.342;2023-09-19T00:22:06;99518.29;;;18.00;43.02
66396;BME280;72184;51.378;-1.342;2023-09-19T00:24:34;99517.54;;;18.01;43.07
66396;BME280;72184;51.378;-1.342;2023-09-19T00:27:01;99517.51;;;18.23;43.11
66396;BME280;72184;51.378;-1.342;2023-09-19T00:29:28;99517.69;;;17.99;43.07
66396;BME280;72184;51.378;-1.342;2023-09-19T00:31:56;99516.67;;;18.01;42.89
66396;BME280;72184;51.378;-1.342;2023-09-19T00:34:23;99512.60;;;17.75;42.91
66396;BME280;72184;51.378;-1.342;2023-09-19T00:36:51;99517.57;;;18.04;42.89
66396;BME280;72184;51.378;-1.342;2023-09-19T00:39:18;99516.54;;;17.77;42.91
66396;BME280;72184;51.378;-1.342;2023-09-19T00:41:46;99513.03;;;18.03;42.91
66396;BME280;72184;51.378;-1.342;2023-09-19T00:44:13;99523.50;;;18.02;42.98
66396;BME280;72184;51.378;-1.342;2023-09-19T00:46:40;99527.82;;;18.23;42.85
66396;BME280;72184;51.378;-1.342;2023-09-19T00:49:08;99524.77;;;18.24;42.85
66396;BME280;72184;51.378;-1.342;2023-09-19T00:51:36;99520.81;;;18.01;42.98
66396;BME280;72184;51.378;-1.342;2023-09-19T00:54:03;99518.38;;;18.22;42.78
66396;BME280;72184;51.378;-1.342;2023-09-19T00:56:31;99522.86;;;17.75;42.85
66396;BME280;72184;51.378;-1.342;2023-09-19T00:58:59;99518.76;;;17.76;42.97
66396;BME280;72184;51.378;-1.342;2023-09-19T01:01:27;99514.13;;;17.75;43.02
66396;BME280;72184;51.378;-1.342;2023-09-19T01:03:54;99516.40;;;18.24;42.96
66396;BME280;72184;51.378;-1.342;2023-09-19T01:06:21;99514.80;;;18.22;43.02
66396;BME280;72184;51.378;-1.342;2023-09-19T01:08:49;99510.43;;;18.23;43.21
66396;BME280;72184;51.378;-1.342;2023-09-19T01:11:21;99512.97;;;17.72;43.07
66396;BME280;72184;51.378;-1.342;2023-09-19T01:13:58;99506.54;;;18.21;43.11
66396;BME280;72184;51.378;-1.342;2023-09-19T01:16:39;99506.23;;;18.22;42.98
66396;BME280;72184;51.378;-1.342;2023-09-19T01:19:26;99496.39;;;17.99;43.14
66396;BME280;72184;51.378;-1.342;2023-09-19T01:22:07;99492.99;;;17.68;43.15
66396;BME280;72184;51.378;-1.342;2023-09-19T01:25:03;99496.77;;;18.13;43.20
66396;BME280;72184;51.378;-1.342;2023-09-19T01:28:20;99501.74;;;17.86;43.26
66396;BME280;72184;51.378;-1.342;2023-09-19T01:30:56;99503.45;;;18.09;43.17
66396;BME280;72184;51.378;-1.342;2023-09-19T01:33:25;99497.39;;;18.11;43.31
66396;BME280;72184;51.378;-1.342;2023-09-19T01:35:52;99500.26;;;17.89;43.23
66396;BME280;72184;51.378;-1.342;2023-09-19T01:38:19;99495.95;;;17.87;43.20
66396;BME280;72184;51.378;-1.342;2023-09-19T01:40:54;99495.82;;;18.06;43.31
66396;BME280;72184;51.378;-1.342;2023-09-19T01:43:30;99497.97;;;17.81;43.43
66396;BME280;72184;51.378;-1.342;2023-09-19T01:46:05;99501.05;;;18.04;43.49
66396;BME280;72184;51.378;-1.342;2023-09-19T01:48:38;99502.39;;;17.55;43.59
66396;BME280;72184;51.378;-1.342;2023-09-19T01:51:10;99508.05;;;17.83;43.50
66396;BME280;72184;51.378;-1.342;2023-09-19T01:53:44;99507.77;;;18.08;43.50
66396;BME280;72184;51.378;-1.342;2023-09-19T01:56:22;99510.62;;;17.88;43.52
66396;BME280;72184;51.378;-1.342;2023-09-19T01:58:55;99511.64;;;17.89;43.40
66396;BME280;72184;51.378;-1.342;2023-09-19T02:01:24;99505.03;;;18.13;43.48
66396;BME280;72184;51.378;-1.342;2023-09-19T02:03:53;99508.08;;;17.63;43.38
66396;BME280;72184;51.378;-1.342;2023-09-19T02:06:21;99501.08;;;17.61;43.42
66396;BME280;72184;51.378;-1.342;2023-09-19T02:08:49;99504.02;;;18.08;43.43
66396;BME280;72184;51.378;-1.342;2023-09-19T02:11:16;99509.51;;;18.08;43.41
66396;BME280;72184;51.378;-1.342;2023-09-19T02:13:43;99512.40;;;17.88;43.60
66396;BME280;72184;51.378;-1.342;2023-09-19T02:16:11;99511.23;;;18.07;43.33
66396;BME280;72184;51.378;-1.342;2023-09-19T02:18:39;99516.10;;;18.08;43.45
66396;BME280;72184;51.378;-1.342;2023-09-19T02:21:06;99507.22;;;18.01;43.35
66396;BME280;72184;51.378;-1.342;2023-09-19T02:23:33;99507.05;;;17.86;43.26
66396;BME280;72184;51.378;-1.342;2023-09-19T02:26:01;99515.29;;;18.10;43.39
66396;BME280;72184;51.378;-1.342;2023-09-19T02:28:28;99509.75;;;18.08;43.43
66396;BME280;72184;51.378;-1.342;2023-09-19T02:30:55;99508.57;;;18.08;43.53
66396;BME280;72184;51.378;-1.342;2023-09-19T02:33:22;99506.73;;;17.86;43.39
66396;BME280;72184;51.378;-1.342;2023-09-19T02:35:54;99509.90;;;18.10;43.51
66396;BME280;72184;51.378;-1.342;2023-09-19T02:38:21;99504.26;;;17.90;43.42
66396;BME280;72184;51.378;-1.342;2023-09-19T02:40:48;99506.53;;;18.13;43.42
66396;BME280;72184;51.378;-1.342;2023-09-19T02:43:16;99506.75;;;17.64;43.37
66396;BME280;72184;51.378;-1.342;2023-09-19T02:45:43;99508.00;;;18.12;43.41
66396;BME280;72184;51.378;-1.342;2023-09-19T02:48:15;99505.31;;;17.89;43.45
66396;BME280;72184;51.378;-1.342;2023-09-19T02:50:43;99504.62;;;17.90;43.57
66396;BME280;72184;51.378;-1.342;2023-09-19T02:53:10;99498.78;;;18.13;43.52
66396;BME280;72184;51.378;-1.342;2023-09-19T02:55:37;99502.41;;;18.14;43.57
66396;BME280;72184;51.378;-1.342;2023-09-19T02:58:06;99499.21;;;17.64;43.74
66396;BME280;72184;51.378;-1.342;2023-09-19T03:00:33;99499.52;;;17.91;43.56
66396;BME280;72184;51.378;-1.342;2023-09-19T03:03:00;99494.38;;;17.90;43.62
66396;BME280;72184;51.378;-1.342;2023-09-19T03:05:28;99493.56;;;17.90;43.58
66396;BME280;72184;51.378;-1.342;2023-09-19T03:07:56;99491.45;;;17.88;43.81
66396;BME280;72184;51.378;-1.342;2023-09-19T03:10:23;99486.39;;;17.58;43.73
66396;BME280;72184;51.378;-1.342;2023-09-19T03:12:51;99489.91;;;17.85;43.97
66396;BME280;72184;51.378;-1.342;2023-09-19T03:15:18;99487.82;;;17.87;43.81
66396;BME280;72184;51.378;-1.342;2023-09-19T03:17:47;99479.39;;;18.07;44.02
66396;BME280;72184;51.378;-1.342;2023-09-19T03:20:15;99478.59;;;18.06;44.06
66396;BME280;72184;51.378;-1.342;2023-09-19T03:22:43;99469.91;;;18.04;44.06
66396;BME280;72184;51.378;-1.342;2023-09-19T03:25:10;99458.24;;;17.80;44.07
66396;BME280;72184;51.378;-1.342;2023-09-19T03:27:37;99450.27;;;17.79;44.24
66396;BME280;72184;51.378;-1.342;2023-09-19T03:30:06;99450.13;;;17.80;44.01
66396;BME280;72184;51.378;-1.342;2023-09-19T03:32:34;99451.68;;;18.03;43.98
66396;BME280;72184;51.378;-1.342;2023-09-19T03:35:04;99449.31;;;17.79;44.18
66396;BME280;72184;51.378;-1.342;2023-09-19T03:37:32;99441.96;;;17.77;44.14
66396;BME280;72184;51.378;-1.342;2023-09-19T03:39:59;99433.84;;;17.76;44.07
66396;BME280;72184;51.378;-1.342;2023-09-19T03:42:26;99432.70;;;17.96;44.18
66396;BME280;72184;51.378;-1.342;2023-09-19T03:44:53;99427.31;;;17.70;44.43
66396;BME280;72184;51.378;-1.342;2023-09-19T03:47:21;99417.32;;;17.88;44.60
66396;BME280;72184;51.378;-1.342;2023-09-19T03:49:48;99415.73;;;17.86;44.77
66396;BME280;72184;51.378;-1.342;2023-09-19T03:52:15;99407.28;;;17.83;44.77
66396;BME280;72184;51.378;-1.342;2023-09-19T03:54:42;99399.49;;;17.81;44.98
66396;BME280;72184;51.378;-1.342;2023-09-19T03:57:10;99391.88;;;17.81;45.14
66396;BME280;72184;51.378;-1.342;2023-09-19T03:59:37;99394.33;;;17.80;45.23
66396;BME280;72184;51.378;-1.342;2023-09-19T04:02:04;99386.52;;;17.80;45.33
66396;BME280;72184;51.378;-1.342;2023-09-19T04:04:32;99376.60;;;17.78;45.42
66396;BME280;72184;51.378;-1.342;2023-09-19T04:06:59;99371.04;;;17.73;45.70
66396;BME280;72184;51.378;-1.342;2023-09-19T04:09:26;99377.48;;;17.72;45.79
66396;BME280;72184;51.378;-1.342;2023-09-19T04:11:53;99367.91;;;17.75;45.77
66396;BME280;72184;51.378;-1.342;2023-09-19T04:14:21;99368.79;;;17.76;45.83
66396;BME280;72184;51.378;-1.342;2023-09-19T04:16:48;99368.56;;;17.74;46.01
66396;BME280;72184;51.378;-1.342;2023-09-19T04:19:15;99363.82;;;17.75;46.03
66396;BME280;72184;51.378;-1.342;2023-09-19T04:21:43;99361.40;;;17.72;46.12
66396;BME280;72184;51.378;-1.342;2023-09-19T04:24:10;99358.07;;;17.73;46.27
66396;BME280;72184;51.378;-1.342;2023-09-19T04:26:37;99359.90;;;17.74;46.25
66396;BME280;72184;51.378;-1.342;2023-09-19T04:29:04;99364.88;;;17.52;46.21
66396;BME280;72184;51.378;-1.342;2023-09-19T04:31:32;99368.66;;;17.76;46.37
66396;BME280;72184;51.378;-1.342;2023-09-19T04:33:59;99373.85;;;17.53;46.42
66396;BME280;72184;51.378;-1.342;2023-09-19T04:36:26;99378.27;;;17.77;46.65
66396;BME280;72184;51.378;-1.342;2023-09-19T04:38:59;99374.18;;;17.77;46.75
66396;BME280;72184;51.378;-1.342;2023-09-19T04:41:26;99380.76;;;17.55;46.84
66396;BME280;72184;51.378;-1.342;2023-09-19T04:43:53;99383.00;;;17.78;46.75
66396;BME280;72184;51.378;-1.342;2023-09-19T04:46:21;99386.76;;;17.80;46.98
66396;BME280;72184;51.378;-1.342;2023-09-19T04:48:48;99383.42;;;17.59;47.09
66396;BME280;72184;51.378;-1.342;2023-09-19T04:51:15;99373.81;;;17.88;47.05
66396;BME280;72184;51.378;-1.342;2023-09-19T04:53:42;99377.84;;;17.89;47.23
66396;BME280;72184;51.378;-1.342;2023-09-19T04:56:09;99373.31;;;17.69;47.34
66396;BME280;72184;51.378;-1.342;2023-09-19T04:58:37;99370.46;;;17.90;47.33
66396;BME280;72184;51.378;-1.342;2023-09-19T05:01:04;99371.69;;;17.74;47.22
66396;BME280;72184;51.378;-1.342;2023-09-19T05:03:31;99361.52;;;18.00;47.39
66396;BME280;72184;51.378;-1.342;2023-09-19T05:05:59;99362.45;;;18.04;47.48
66396;BME280;72184;51.378;-1.342;2023-09-19T05:08:26;99353.39;;;18.09;47.39
66396;BME280;72184;51.378;-1.342;2023-09-19T05:10:53;99357.07;;;17.90;47.45
66396;BME280;72184;51.378;-1.342;2023-09-19T05:13:20;99359.97;;;17.91;47.61
66396;BME280;72184;51.378;-1.342;2023-09-19T05:15:48;99359.79;;;18.16;47.68
66396;BME280;72184;51.378;-1.342;2023-09-19T05:18:15;99358.90;;;17.69;47.79
66396;BME280;72184;51.378;-1.342;2023-09-19T05:20:42;99350.72;;;17.72;47.55
66396;BME280;72184;51.378;-1.342;2023-09-19T05:23:09;99354.47;;;18.24;47.71
66396;BME280;72184;51.378;-1.342;2023-09-19T05:25:38;99349.34;;;18.25;47.91
66396;BME280;72184;51.378;-1.342;2023-09-19T05:28:06;99342.91;;;18.05;48.01
66396;BME280;72184;51.378;-1.342;2023-09-19T05:30:33;99343.88;;;18.23;48.32
66396;BME280;72184;51.378;-1.342;2023-09-19T05:33:02;99340.35;;;17.77;48.32
66396;BME280;72184;51.378;-1.342;2023-09-19T05:35:29;99336.07;;;17.84;48.22
66396;BME280;72184;51.378;-1.342;2023-09-19T05:37:57;99333.88;;;17.89;48.47
66396;BME280;72184;51.378;-1.342;2023-09-19T05:40:25;99333.26;;;18.44;48.43
66396;BME280;72184;51.378;-1.342;2023-09-19T05:42:53;99328.24;;;18.02;48.51
66396;BME280;72184;51.378;-1.342;2023-09-19T05:45:20;99327.57;;;18.29;48.72
66396;BME280;72184;51.378;-1.342;2023-09-19T05:47:47;99330.49;;;18.05;48.77
66396;BME280;72184;51.378;-1.342;2023-09-19T05:50:14;99326.09;;;18.31;48.92
66396;BME280;72184;51.378;-1.342;2023-09-19T05:52:42;99327.19;;;18.61;48.79
66396;BME280;72184;51.378;-1.342;2023-09-19T05:55:09;99318.47;;;18.16;48.77
66396;BME280;72184;51.378;-1.342;2023-09-19T05:57:36;99317.53;;;18.18;48.95
66396;BME280;72184;51.378;-1.342;2023-09-19T06:00:04;99315.45;;;18.53;48.91
66396;BME280;72184;51.378;-1.342;2023-09-19T06:02:31;99316.68;;;18.54;48.90
66396;BME280;72184;51.378;-1.342;2023-09-19T06:04:59;99313.20;;;18.32;48.87
66396;BME280;72184;51.378;-1.342;2023-09-19T06:07:26;99319.98;;;18.33;48.93
66396;BME280;72184;51.378;-1.342;2023-09-19T06:09:53;99318.26;;;18.66;48.85
66396;BME280;72184;51.378;-1.342;2023-09-19T06:12:20;99312.67;;;18.40;48.99
66396;BME280;72184;51.378;-1.342;2023-09-19T06:14:47;99316.86;;;18.48;48.87
66396;BME280;72184;51.378;-1.342;2023-09-19T06:17:15;99303.38;;;18.52;48.83
66396;BME280;72184;51.378;-1.342;2023-09-19T06:19:42;99304.98;;;18.58;48.77
66396;BME280;72184;51.378;-1.342;2023-09-19T06:22:09;99295.07;;;18.62;48.70
66396;BME280;72184;51.378;-1.342;2023-09-19T06:24:36;99295.38;;;18.68;48.70
66396;BME280;72184;51.378;-1.342;2023-09-19T06:27:04;99290.95;;;18.97;48.63
66396;BME280;72184;51.378;-1.342;2023-09-19T06:29:32;99291.83;;;18.73;48.56
66396;BME280;72184;51.378;-1.342;2023-09-19T06:31:59;99287.91;;;18.75;48.69
66396;BME280;72184;51.378;-1.342;2023-09-19T06:34:26;99283.38;;;18.80;48.82
66396;BME280;72184;51.378;-1.342;2023-09-19T06:36:53;99285.39;;;18.80;48.90
66396;BME280;72184;51.378;-1.342;2023-09-19T06:39:21;99283.96;;;18.81;48.68
66396;BME280;72184;51.378;-1.342;2023-09-19T06:41:49;99286.44;;;18.84;48.75
66396;BME280;72184;51.378;-1.342;2023-09-19T06:44:16;99282.92;;;18.88;48.62
66396;BME280;72184;51.378;-1.342;2023-09-19T06:46:43;99276.97;;;19.13;48.80
66396;BME280;72184;51.378;-1.342;2023-09-19T06:49:10;99277.47;;;18.90;48.80
66396;BME280;72184;51.378;-1.342;2023-09-19T06:51:38;99274.50;;;18.89;48.81
66396;BME280;72184;51.378;-1.342;2023-09-19T06:54:05;99278.43;;;18.91;48.91
66396;BME280;72184;51.378;-1.342;2023-09-19T06:56:32;99278.07;;;18.91;49.04
66396;BME280;72184;51.378;-1.342;2023-09-19T06:58:59;99277.71;;;18.95;49.12
66396;BME280;72184;51.378;-1.342;2023-09-19T07:01:26;99269.99;;;19.01;49.00
66396;BME280;72184;51.378;-1.342;2023-09-19T07:03:54;99281.84;;;18.83;49.18
66396;BME280;72184;51.378;-1.342;2023-09-19T07:06:21;99266.17;;;19.11;49.02
66396;BME280;72184;51.378;-1.342;2023-09-19T07:08:48;99262.48;;;18.85;49.14
66396;BME280;72184;51.378;-1.342;2023-09-19T07:11:15;99254.52;;;19.18;49.07
66396;BME280;72184;51.378;-1.342;2023-09-19T07:13:42;99257.00;;;19.17;49.02
66396;BME280;72184;51.378;-1.342;2023-09-19T07:16:09;99250.14;;;19.23;49.13
66396;BME280;72184;51.378;-1.342;2023-09-19T07:18:37;99260.42;;;19.28;48.90
66396;BME280;72184;51.378;-1.342;2023-09-19T07:21:04;99256.53;;;19.29;48.77
66396;BME280;72184;51.378;-1.342;2023-09-19T07:23:31;99258.72;;;19.35;48.85
66396;BME280;72184;51.378;-1.342;2023-09-19T07:25:58;99268.39;;;19.40;48.86
66396;BME280;72184;51.378;-1.342;2023-09-19T07:28:25;99265.35;;;19.47;48.65
66396;BME280;72184;51.378;-1.342;2023-09-19T07:30:53;99259.97;;;19.48;48.67
66396;BME280;72184;51.378;-1.342;2023-09-19T07:33:20;99267.05;;;19.49;48.61
66396;BME280;72184;51.378;-1.342;2023-09-19T07:35:47;99245.39;;;19.52;48.41
66396;BME280;72184;51.378;-1.342;2023-09-19T07:38:15;99245.77;;;19.54;48.51
66396;BME280;72184;51.378;-1.342;2023-09-19T07:40:42;99252.53;;;19.35;48.27
66396;BME280;72184;51.378;-1.342;2023-09-19T07:43:09;99259.56;;;19.38;48.19
66396;BME280;72184;51.378;-1.342;2023-09-19T07:45:37;99266.64;;;19.67;48.31
66396;BME280;72184;51.378;-1.342;2023-09-19T07:48:05;99263.54;;;19.45;48.20
66396;BME280;72184;51.378;-1.342;2023-09-19T07:50:33;99263.21;;;19.50;47.98
66396;BME280;72184;51.378;-1.342;2023-09-19T07:53:01;99257.64;;;19.58;47.80
66396;BME280;72184;51.378;-1.342;2023-09-19T07:55:28;99272.32;;;19.81;47.78
66396;BME280;72184;51.378;-1.342;2023-09-19T07:57:56;99249.73;;;19.68;47.91
66396;BME280;72184;51.378;-1.342;2023-09-19T08:00:23;99252.92;;;19.77;47.91
66396;BME280;72184;51.378;-1.342;2023-09-19T08:02:50;99245.95;;;19.51;47.95
66396;BME280;72184;51.378;-1.342;2023-09-19T08:05:18;99228.11;;;19.50;48.09
66396;BME280;72184;51.378;-1.342;2023-09-19T08:07:46;99223.45;;;19.79;48.13
66396;BME280;72184;51.378;-1.342;2023-09-19T08:10:14;99235.58;;;19.98;48.22
66396;BME280;72184;51.378;-1.342;2023-09-19T08:12:43;99236.63;;;19.80;48.10
66396;BME280;72184;51.378;-1.342;2023-09-19T08:15:11;99253.29;;;19.83;47.94
66396;BME280;72184;51.378;-1.342;2023-09-19T08:17:38;99253.91;;;19.94;48.03
66396;BME280;72184;51.378;-1.342;2023-09-19T08:20:07;99244.14;;;19.71;47.88
66396;BME280;72184;51.378;-1.342;2023-09-19T08:22:35;99251.48;;;20.27;48.11
66396;BME280;72184;51.378;-1.342;2023-09-19T08:25:03;99256.02;;;19.88;47.68
66396;BME280;72184;51.378;-1.342;2023-09-19T08:27:30;99254.21;;;19.91;47.41
66396;BME280;72184;51.378;-1.342;2023-09-19T08:29:58;99257.08;;;19.95;47.40
66396;BME280;72184;51.378;-1.342;2023-09-19T08:32:25;99247.25;;;20.23;47.05
66396;BME280;72184;51.378;-1.342;2023-09-19T08:34:52;99246.83;;;20.03;46.82
66396;BME280;72184;51.378;-1.342;2023-09-19T08:37:19;99255.94;;;20.06;47.07
66396;BME280;72184;51.378;-1.342;2023-09-19T08:39:46;99252.93;;;19.97;46.73
66396;BME280;72184;51.378;-1.342;2023-09-19T08:42:13;99251.19;;;20.30;46.63
66396;BME280;72184;51.378;-1.342;2023-09-19T08:44:40;99246.95;;;20.35;46.72
66396;BME280;72184;51.378;-1.342;2023-09-19T08:47:10;99244.08;;;19.90;46.88
66396;BME280;72184;51.378;-1.342;2023-09-19T08:49:48;99232.05;;;20.10;47.03
66396;BME280;72184;51.378;-1.342;2023-09-19T08:52:22;99238.74;;;20.14;47.25
66396;BME280;72184;51.378;-1.342;2023-09-19T08:54:52;99245.30;;;20.14;47.23
66396;BME280;72184;51.378;-1.342;2023-09-19T08:57:23;99250.73;;;20.13;47.49
66396;BME280;72184;51.378;-1.342;2023-09-19T08:59:51;99246.12;;;20.15;47.56
66396;BME280;72184;51.378;-1.342;2023-09-19T09:02:19;99248.60;;;19.96;47.53
66396;BME280;72184;51.378;-1.342;2023-09-19T09:04:49;99250.93;;;20.20;46.97
66396;BME280;72184;51.378;-1.342;2023-09-19T09:07:16;99249.90;;;20.45;47.10
66396;BME280;72184;51.378;-1.342;2023-09-19T09:09:45;99244.58;;;20.44;47.00
66396;BME280;72184;51.378;-1.342;2023-09-19T09:12:13;99257.80;;;20.17;46.87
66396;BME280;72184;51.378;-1.342;2023-09-19T09:14:44;99254.04;;;20.23;47.08
66396;BME280;72184;51.378;-1.342;2023-09-19T09:17:12;99250.84;;;20.08;46.79
66396;BME280;72184;51.378;-1.342;2023-09-19T09:19:39;99250.38;;;20.35;46.87
66396;BME280;72184;51.378;-1.342;2023-09-19T09:22:07;99254.13;;;20.37;46.93
66396;BME280;72184;51.378;-1.342;2023-09-19T09:24:35;99250.47;;;20.42;46.80
66396;BME280;72184;51.378;-1.342;2023-09-19T09:27:04;99247.30;;;20.15;46.36
66396;BME280;72184;51.378;-1.342;2023-09-19T09:29:48;99257.32;;;20.40;46.35
66396;BME280;72184;51.378;-1.342;2023-09-19T09:32:18;99262.47;;;20.47;46.67
66396;BME280;72184;51.378;-1.342;2023-09-19T09:34:46;99248.23;;;20.56;46.26
66396;BME280;72184;51.378;-1.342;2023-09-19T09:37:14;99251.76;;;20.58;46.18
66396;BME280;72184;51.378;-1.342;2023-09-19T09:39:49;99250.78;;;20.60;46.61
66396;BME280;72184;51.378;-1.342;2023-09-19T09:42:29;99246.68;;;20.61;46.09
66396;BME280;72184;51.378;-1.342;2023-09-19T09:45:12;99249.21;;;20.55;46.67
66396;BME280;72184;51.378;-1.342;2023-09-19T09:47:42;99257.02;;;20.38;46.35
66396;BME280;72184;51.378;-1.342;2023-09-19T09:50:09;99244.31;;;20.64;46.47
66396;BME280;72184;51.378;-1.342;2023-09-19T09:52:45;99252.46;;;20.43;46.47
66396;BME280;72184;51.378;-1.342;2023-09-19T09:55:13;99253.25;;;20.47;46.62
66396;BME280;72184;51.378;-1.342;2023-09-19T09:57:40;99251.04;;;20.75;46.48
66396;BME280;72184;51.378;-1.342;2023-09-19T10:00:08;99243.80;;;20.57;46.45
66396;BME280;72184;51.378;-1.342;2023-09-19T10:02:37;99260.80;;;20.82;46.43
66396;BME280;72184;51.378;-1.342;2023-09-19T10:05:12;99265.07;;;20.35;46.27
66396;BME280;72184;51.378;-1.342;2023-09-19T10:07:41;99256.61;;;20.88;46.42
66396;BME280;72184;51.378;-1.342;2023-09-19T10:10:09;99252.59;;;20.94;46.46
66396;BME280;72184;51.378;-1.342;2023-09-19T10:12:38;99257.88;;;21.02;46.34
66396;BME280;72184;51.378;-1.342;2023-09-19T10:15:11;99265.13;;;20.65;46.66
66396;BME280;72184;51.378;-1.342;2023-09-19T10:17:45;99261.80;;;20.54;46.59
66396;BME280;72184;51.378;-1.342;2023-09-19T10:20:14;99255.55;;;21.12;46.72
66396;BME280;72184;51.378;-1.342;2023-09-19T10:22:42;99263.22;;;20.83;46.75
66396;BME280;72184;51.378;-1.342;2023-09-19T10:25:10;99252.03;;;20.87;46.81
66396;BME280;72184;51.378;-1.342;2023-09-19T10:27:39;99258.47;;;20.79;46.95
66396;BME280;72184;51.378;-1.342;2023-09-19T10:30:08;99249.24;;;21.06;47.07
66396;BME280;72184;51.378;-1.342;2023-09-19T10:32:40;99253.25;;;20.67;47.31
66396;BME280;72184;51.378;-1.342;2023-09-19T10:35:11;99240.38;;;20.95;47.11
66396;BME280;72184;51.378;-1.342;2023-09-19T10:37:40;99250.24;;;20.77;47.15
66396;BME280;72184;51.378;-1.342;2023-09-19T10:40:08;99259.94;;;20.80;47.24
66396;BME280;72184;51.378;-1.342;2023-09-19T10:42:38;99257.50;;;21.00;47.32
66396;BME280;72184;51.378;-1.342;2023-09-19T10:45:08;99249.23;;;20.86;47.31
66396;BME280;72184;51.378;-1.342;2023-09-19T10:47:36;99244.78;;;21.26;47.37
66396;BME280;72184;51.378;-1.342;2023-09-19T10:50:05;99247.40;;;20.93;47.53
66396;BME280;72184;51.378;-1.342;2023-09-19T10:52:34;99248.41;;;21.18;47.28
66396;BME280;72184;51.378;-1.342;2023-09-19T10:55:07;99246.13;;;20.95;47.80
66396;BME280;72184;51.378;-1.342;2023-09-19T10:57:35;99239.12;;;21.46;47.57
66396;BME280;72184;51.378;-1.342;2023-09-19T11:00:05;99247.09;;;21.23;47.54
66396;BME280;72184;51.378;-1.342;2023-09-19T11:02:33;99249.42;;;20.92;47.64
66396;BME280;72184;51.378;-1.342;2023-09-19T11:05:11;99243.54;;;21.02;47.73
66396;BME280;72184;51.378;-1.342;2023-09-19T11:07:57;99247.10;;;21.09;47.52
66396;BME280;72184;51.378;-1.342;2023-09-19T11:10:57;99254.13;;;21.11;47.61
66396;BME280;72184;51.378;-1.342;2023-09-19T11:13:25;99255.72;;;21.15;47.48
66396;BME280;72184;51.378;-1.342;2023-09-19T11:16:05;99246.85;;;21.20;47.36
66396;BME280;72184;51.378;-1.342;2023-09-19T11:19:04;99244.02;;;21.25;47.36
66396;BME280;72184;51.378;-1.342;2023-09-19T11:21:40;99242.36;;;21.00;47.43
66396;BME280;72184;51.378;-1.342;2023-09-19T11:24:40;99236.08;;;21.34;47.61
66396;BME280;72184;51.378;-1.342;2023-09-19T11:27:12;99238.73;;;21.42;47.50
66396;BME280;72184;51.378;-1.342;2023-09-19T11:29:40;99237.52;;;21.32;47.85
66396;BME280;72184;51.378;-1.342;2023-09-19T11:32:08;99226.56;;;21.41;47.72
66396;BME280;72184;51.378;-1.342;2023-09-19T11:34:43;99222.12;;;21.40;48.00
66396;BME280;72184;51.378;-1.342;2023-09-19T11:38:15;99229.41;;;21.44;47.72
66396;BME280;72184;51.378;-1.342;2023-09-19T11:40:46;99225.74;;;21.40;47.85
66396;BME280;72184;51.378;-1.342;2023-09-19T11:43:29;99225.09;;;21.52;48.21
66396;BME280;72184;51.378;-1.342;2023-09-19T11:46:05;99213.82;;;21.61;48.15
66396;BME280;72184;51.378;-1.342;2023-09-19T11:48:32;99216.74;;;21.61;47.97
66396;BME280;72184;51.378;-1.342;2023-09-19T11:51:00;99219.21;;;21.37;48.03
66396;BME280;72184;51.378;-1.342;2023-09-19T11:53:32;99214.55;;;21.69;48.23
66396;BME280;72184;51.378;-1.342;2023-09-19T11:55:59;99208.96;;;21.62;48.33
66396;BME280;72184;51.378;-1.342;2023-09-19T11:58:27;99217.30;;;21.74;48.27
66396;BME280;72184;51.378;-1.342;2023-09-19T12:00:55;99215.77;;;21.77;48.27
66396;BME280;72184;51.378;-1.342;2023-09-19T12:03:24;99204.45;;;21.51;48.14
66396;BME280;72184;51.378;-1.342;2023-09-19T12:05:56;99205.15;;;21.77;48.31
66396;BME280;72184;51.378;-1.342;2023-09-19T12:08:24;99203.36;;;21.57;48.24
66396;BME280;72184;51.378;-1.342;2023-09-19T12:10:51;99212.87;;;21.62;48.23
66396;BME280;72184;51.378;-1.342;2023-09-19T12:13:20;99201.53;;;21.82;48.78
66396;BME280;72184;51.378;-1.342;2023-09-19T12:15:48;99200.93;;;21.88;48.69
66396;BME280;72184;51.378;-1.342;2023-09-19T12:18:32;99209.43;;;21.93;48.63
66396;BME280;72184;51.378;-1.342;2023-09-19T12:21:00;99204.82;;;21.90;48.75
66396;BME280;72184;51.378;-1.342;2023-09-19T12:23:27;99207.32;;;21.65;48.32
66396;BME280;72184;51.378;-1.342;2023-09-19T12:25:55;99200.62;;;21.95;48.55
66396;BME280;72184;51.378;-1.342;2023-09-19T12:28:23;99212.23;;;21.91;48.50
66396;BME280;72184;51.378;-1.342;2023-09-19T12:30:53;99207.58;;;21.62;48.36
66396;BME280;72184;51.378;-1.342;2023-09-19T12:33:20;99207.43;;;21.57;48.52
66396;BME280;72184;51.378;-1.342;2023-09-19T12:35:48;99205.53;;;21.85;48.60
66396;BME280;72184;51.378;-1.342;2023-09-19T12:38:24;99210.76;;;21.57;48.56
66396;BME280;72184;51.378;-1.342;2023-09-19T12:40:51;99211.30;;;21.82;48.68
66396;BME280;72184;51.378;-1.342;2023-09-19T12:43:19;99202.15;;;21.60;48.98
66396;BME280;72184;51.378;-1.342;2023-09-19T12:45:47;99206.83;;;21.58;49.05
66396;BME280;72184;51.378;-1.342;2023-09-19T12:48:19;99209.12;;;21.94;49.08
66396;BME280;72184;51.378;-1.342;2023-09-19T12:51:04;99200.67;;;21.77;49.12
66396;BME280;72184;51.378;-1.342;2023-09-19T12:53:32;99200.60;;;22.13;49.07
66396;BME280;72184;51.378;-1.342;2023-09-19T12:56:01;99190.91;;;21.88;48.71
66396;BME280;72184;51.378;-1.342;2023-09-19T12:58:28;99190.58;;;21.85;48.70
66396;BME280;72184;51.378;-1.342;2023-09-19T13:00:56;99200.31;;;21.93;48.61